sensor_id;sensor_type;location;lat;lon;timestamp;pressure;altitude;pressure_sealevel;temperature;humidity
61676;BME280;47574;52.090;5.244;2023-03-04T00:00:09;102672.0;;;12.26;44.99
61676;BME280;47574;52.090;5.244;2023-03-04T00:01:46;102675.0;;;11.93;45.9
61676;BME280;47574;52.090;5.244;2023-03-04T00:03:22;102671.0;;;12.24;45.37
61676;BME280;47574;52.090;5.244;2023-03-04T00:04:58;102669.0;;;12.29;45.35
61676;BME280;47574;52.090;5.244;2023-03-04T00:08:11;102672.0;;;12.12;45.67
61676;BME280;47574;52.090;5.244;2023-03-04T00:09:47;102673.0;;;12.27;45.39
61676;BME280;47574;52.090;5.244;2023-03-04T00:11:23;102676.0;;;12.34;45.37
61676;BME280;47574;52.090;5.244;2023-03-04T00:14:35;102677.0;;;11.52;46.86
61676;BME280;47574;52.090;5.244;2023-03-04T00:16:12;102674.0;;;11.56;46.89
61676;BME280;47574;52.090;5.244;2023-03-04T00:17:48;102671.0;;;12.16;45.69
61676;BME280;47574;52.090;5.244;2023-03-04T00:21:00;102670.0;;;12.41;45.13
61676;BME280;47574;52.090;5.244;2023-03-04T00:22:36;102673.0;;;11.87;46.31
61676;BME280;47574;52.090;5.244;2023-03-04T00:24:12;102667.0;;;12.35;45.34
61676;BME280;47574;52.090;5.244;2023-03-04T00:27:24;102668.0;;;12.07;45.74
61676;BME280;47574;52.090;5.244;2023-03-04T00:29:00;102675.0;;;11.37;47.4
61676;BME280;47574;52.090;5.244;2023-03-04T00:30:37;102676.0;;;12.06;46.06
61676;BME280;47574;52.090;5.244;2023-03-04T00:32:13;102675.0;;;12.15;45.75
61676;BME280;47574;52.090;5.244;2023-03-04T00:35:25;102674.0;;;11.73;46.79
61676;BME280;47574;52.090;5.244;2023-03-04T00:37:01;102677.0;;;12.03;46.17
61676;BME280;47574;52.090;5.244;2023-03-04T00:38:38;102677.0;;;12.11;46.09
61676;BME280;47574;52.090;5.244;2023-03-04T00:41:50;102678.0;;;11.97;46.27
61676;BME280;47574;52.090;5.244;2023-03-04T00:43:26;102672.0;;;11.52;47.42
61676;BME280;47574;52.090;5.244;2023-03-04T00:45:02;102675.0;;;12.03;46.39
61676;BME280;47574;52.090;5.244;2023-03-04T00:48:15;102673.0;;;11.95;46.34
61676;BME280;47574;52.090;5.244;2023-03-04T00:49:51;102676.0;;;12.02;46.09
61676;BME280;47574;52.090;5.244;2023-03-04T00:51:28;102672.0;;;12.32;45.67
61676;BME280;47574;52.090;5.244;2023-03-04T00:53:04;102676.0;;;12.25;45.7
61676;BME280;47574;52.090;5.244;2023-03-04T00:56:17;102676.0;;;12.19;45.81
61676;BME280;47574;52.090;5.244;2023-03-04T00:57:53;102675.0;;;12.12;45.97
61676;BME280;47574;52.090;5.244;2023-03-04T01:02:42;102680.0;;;12.0;46.42
61676;BME280;47574;52.090;5.244;2023-03-04T01:04:19;102679.0;;;12.31;45.84
61676;BME280;47574;52.090;5.244;2023-03-04T01:05:55;102676.0;;;12.33;45.88
61676;BME280;47574;52.090;5.244;2023-03-04T01:09:07;102677.0;;;12.12;46.21
61676;BME280;47574;52.090;5.244;2023-03-04T01:10:43;102676.0;;;12.4;45.64
61676;BME280;47574;52.090;5.244;2023-03-04T01:12:19;102676.0;;;12.08;46.42
61676;BME280;47574;52.090;5.244;2023-03-04T01:15:32;102680.0;;;12.27;45.7
61676;BME280;47574;52.090;5.244;2023-03-04T01:17:08;102676.0;;;12.34;45.57
61676;BME280;47574;52.090;5.244;2023-03-04T01:18:44;102677.0;;;12.29;45.75
61676;BME280;47574;52.090;5.244;2023-03-04T01:20:20;102679.0;;;11.93;46.5
61676;BME280;47574;52.090;5.244;2023-03-04T01:23:32;102683.0;;;12.3;45.73
61676;BME280;47574;52.090;5.244;2023-03-04T01:25:09;102677.0;;;12.14;46.0
61676;BME280;47574;52.090;5.244;2023-03-04T01:26:46;102671.0;;;11.51;47.15
61676;BME280;47574;52.090;5.244;2023-03-04T01:29:59;102671.0;;;11.92;46.24
61676;BME280;47574;52.090;5.244;2023-03-04T01:31:35;102664.00000000001;;;11.62;46.49
61676;BME280;47574;52.090;5.244;2023-03-04T01:33:11;102665.00000000001;;;11.71;46.35
61676;BME280;47574;52.090;5.244;2023-03-04T01:36:24;102661.99999999999;;;11.54;46.39
61676;BME280;47574;52.090;5.244;2023-03-04T01:38:00;102661.99999999999;;;11.96;45.68
61676;BME280;47574;52.090;5.244;2023-03-04T01:39:36;102657.0;;;12.06;45.4
61676;BME280;47574;52.090;5.244;2023-03-04T01:41:12;102649.0;;;11.44;46.23
61676;BME280;47574;52.090;5.244;2023-03-04T01:44:28;102651.0;;;11.53;46.18
61676;BME280;47574;52.090;5.244;2023-03-04T01:46:05;102646.0;;;11.91;45.46
61676;BME280;47574;52.090;5.244;2023-03-04T01:47:43;102646.0;;;11.62;46.05
61676;BME280;47574;52.090;5.244;2023-03-04T01:50:58;102644.0;;;11.86;45.33
61676;BME280;47574;52.090;5.244;2023-03-04T01:52:35;102642.0;;;12.13;44.76
61676;BME280;47574;52.090;5.244;2023-03-04T01:54:19;102642.0;;;12.06;44.68
61676;BME280;47574;52.090;5.244;2023-03-04T01:56:00;102644.0;;;11.69;45.46
61676;BME280;47574;52.090;5.244;2023-03-04T01:59:16;102639.00000000001;;;11.75;45.27
61676;BME280;47574;52.090;5.244;2023-03-04T02:00:55;102634.99999999999;;;12.13;44.68
61676;BME280;47574;52.090;5.244;2023-03-04T02:02:31;102632.0;;;11.77;45.36
61676;BME280;47574;52.090;5.244;2023-03-04T02:05:47;102631.0;;;11.9;45.14
61676;BME280;47574;52.090;5.244;2023-03-04T02:07:24;102625.0;;;12.09;44.88
61676;BME280;47574;52.090;5.244;2023-03-04T02:09:00;102627.0;;;12.0;45.12
61676;BME280;47574;52.090;5.244;2023-03-04T02:10:37;102620.0;;;11.77;45.61
61676;BME280;47574;52.090;5.244;2023-03-04T02:13:50;102620.0;;;11.48;46.09
61676;BME280;47574;52.090;5.244;2023-03-04T02:15:28;102621.0;;;12.13;44.9
61676;BME280;47574;52.090;5.244;2023-03-04T02:17:08;102615.00000000001;;;12.03;45.2
61676;BME280;47574;52.090;5.244;2023-03-04T02:20:33;102614.00000000001;;;12.19;44.86
61676;BME280;47574;52.090;5.244;2023-03-04T02:22:13;102608.0;;;12.2;44.85
61676;BME280;47574;52.090;5.244;2023-03-04T02:23:55;102608.0;;;12.33;44.26
61676;BME280;47574;52.090;5.244;2023-03-04T02:25:40;102600.0;;;11.97;44.75
61676;BME280;47574;52.090;5.244;2023-03-04T02:27:20;102599.0;;;12.34;44.03
61676;BME280;47574;52.090;5.244;2023-03-04T02:30:34;102604.0;;;11.93;44.8
61676;BME280;47574;52.090;5.244;2023-03-04T02:32:12;102599.0;;;11.87;45.01
61676;BME280;47574;52.090;5.244;2023-03-04T02:33:49;102599.0;;;11.9;44.86
61676;BME280;47574;52.090;5.244;2023-03-04T02:37:02;102598.0;;;11.92;45.0
61676;BME280;47574;52.090;5.244;2023-03-04T02:38:39;102598.0;;;12.05;44.76
61676;BME280;47574;52.090;5.244;2023-03-04T02:40:20;102592.0;;;12.06;44.8
61676;BME280;47574;52.090;5.244;2023-03-04T02:42:01;102595.0;;;12.07;44.75
61676;BME280;47574;52.090;5.244;2023-03-04T02:45:32;102591.00000000001;;;11.78;44.91
61676;BME280;47574;52.090;5.244;2023-03-04T02:47:12;102588.00000000001;;;12.24;44.2
61676;BME280;47574;52.090;5.244;2023-03-04T02:48:50;102584.99999999999;;;11.85;44.91
61676;BME280;47574;52.090;5.244;2023-03-04T02:50:27;102582.0;;;11.97;44.89
61676;BME280;47574;52.090;5.244;2023-03-04T02:53:47;102575.0;;;11.94;44.8
61676;BME280;47574;52.090;5.244;2023-03-04T02:55:24;102579.0;;;11.69;45.29
61676;BME280;47574;52.090;5.244;2023-03-04T02:57:01;102578.0;;;11.93;44.97
61676;BME280;47574;52.090;5.244;2023-03-04T02:58:39;102574.0;;;12.28;44.15
61676;BME280;47574;52.090;5.244;2023-03-04T03:01:51;102583.99999999999;;;11.84;44.99
61676;BME280;47574;52.090;5.244;2023-03-04T03:03:28;102579.0;;;11.96;44.94
61676;BME280;47574;52.090;5.244;2023-03-04T03:05:06;102582.0;;;11.66;45.41
61676;BME280;47574;52.090;5.244;2023-03-04T03:08:18;102579.0;;;11.8;45.34
61676;BME280;47574;52.090;5.244;2023-03-04T03:09:54;102578.0;;;11.98;44.91
61676;BME280;47574;52.090;5.244;2023-03-04T03:11:31;102576.0;;;11.53;45.86
61676;BME280;47574;52.090;5.244;2023-03-04T03:14:43;102574.0;;;11.82;45.19
61676;BME280;47574;52.090;5.244;2023-03-04T03:16:19;102576.0;;;11.62;45.79
61676;BME280;47574;52.090;5.244;2023-03-04T03:17:56;102572.0;;;11.64;45.74
61676;BME280;47574;52.090;5.244;2023-03-04T03:19:32;102568.0;;;11.96;45.12
61676;BME280;47574;52.090;5.244;2023-03-04T03:22:45;102568.0;;;12.05;44.99
61676;BME280;47574;52.090;5.244;2023-03-04T03:24:22;102567.0;;;12.03;45.13
61676;BME280;47574;52.090;5.244;2023-03-04T03:25:58;102570.0;;;11.98;44.93
61676;BME280;47574;52.090;5.244;2023-03-04T03:29:10;102567.0;;;12.01;44.88
61676;BME280;47574;52.090;5.244;2023-03-04T03:30:46;102567.0;;;11.63;45.64
61676;BME280;47574;52.090;5.244;2023-03-04T03:32:23;102563.00000000001;;;12.14;44.76
61676;BME280;47574;52.090;5.244;2023-03-04T03:35:35;102559.99999999999;;;11.87;45.26
61676;BME280;47574;52.090;5.244;2023-03-04T03:37:12;102563.00000000001;;;11.9;45.31
61676;BME280;47574;52.090;5.244;2023-03-04T03:38:48;102559.99999999999;;;11.5;45.89
61676;BME280;47574;52.090;5.244;2023-03-04T03:40:24;102563.00000000001;;;11.77;45.56
61676;BME280;47574;52.090;5.244;2023-03-04T03:43:37;102565.00000000001;;;11.84;45.47
61676;BME280;47574;52.090;5.244;2023-03-04T03:45:13;102561.99999999999;;;12.1;44.98
61676;BME280;47574;52.090;5.244;2023-03-04T03:46:49;102559.99999999999;;;11.94;45.38
61676;BME280;47574;52.090;5.244;2023-03-04T03:50:02;102558.0;;;12.09;44.99
61676;BME280;47574;52.090;5.244;2023-03-04T03:51:38;102558.99999999999;;;11.82;45.53
61676;BME280;47574;52.090;5.244;2023-03-04T03:53:15;102559.99999999999;;;11.67;45.95
61676;BME280;47574;52.090;5.244;2023-03-04T03:56:27;102561.99999999999;;;11.81;45.94
61676;BME280;47574;52.090;5.244;2023-03-04T03:58:03;102561.99999999999;;;11.72;46.16
61676;BME280;47574;52.090;5.244;2023-03-04T03:59:39;102564.00000000001;;;11.61;46.77
61676;BME280;47574;52.090;5.244;2023-03-04T04:02:52;102567.0;;;11.61;46.99
61676;BME280;47574;52.090;5.244;2023-03-04T04:04:29;102567.0;;;11.64;47.23
61676;BME280;47574;52.090;5.244;2023-03-04T04:06:06;102565.00000000001;;;11.87;46.85
61676;BME280;47574;52.090;5.244;2023-03-04T04:07:42;102567.0;;;12.02;46.58
61676;BME280;47574;52.090;5.244;2023-03-04T04:10:54;102567.0;;;11.89;46.92
61676;BME280;47574;52.090;5.244;2023-03-04T04:12:31;102567.0;;;11.82;46.83
61676;BME280;47574;52.090;5.244;2023-03-04T04:14:08;102568.0;;;11.66;47.0
61676;BME280;47574;52.090;5.244;2023-03-04T04:17:22;102569.0;;;11.87;46.61
61676;BME280;47574;52.090;5.244;2023-03-04T04:18:58;102567.0;;;12.02;46.4
61676;BME280;47574;52.090;5.244;2023-03-04T04:20:34;102568.0;;;11.68;47.01
61676;BME280;47574;52.090;5.244;2023-03-04T04:23:50;102570.0;;;11.82;46.44
61676;BME280;47574;52.090;5.244;2023-03-04T04:25:27;102571.0;;;11.83;46.47
61676;BME280;47574;52.090;5.244;2023-03-04T04:27:03;102568.0;;;11.39;47.31
61676;BME280;47574;52.090;5.244;2023-03-04T04:28:39;102576.0;;;11.82;46.61
61676;BME280;47574;52.090;5.244;2023-03-04T04:31:52;102570.0;;;11.93;46.36
61676;BME280;47574;52.090;5.244;2023-03-04T04:33:28;102577.0;;;11.92;46.49
61676;BME280;47574;52.090;5.244;2023-03-04T04:35:06;102574.0;;;11.96;46.47
61676;BME280;47574;52.090;5.244;2023-03-04T04:38:19;102570.0;;;11.74;46.97
61676;BME280;47574;52.090;5.244;2023-03-04T04:39:55;102573.0;;;11.48;47.56
61676;BME280;47574;52.090;5.244;2023-03-04T04:41:35;102574.0;;;11.82;47.03
61676;BME280;47574;52.090;5.244;2023-03-04T04:43:12;102571.0;;;12.08;46.81
61676;BME280;47574;52.090;5.244;2023-03-04T04:46:25;102575.0;;;12.12;46.68
61676;BME280;47574;52.090;5.244;2023-03-04T04:48:02;102571.0;;;12.06;47.04
61676;BME280;47574;52.090;5.244;2023-03-04T04:49:38;102577.0;;;11.97;47.46
61676;BME280;47574;52.090;5.244;2023-03-04T04:52:50;102578.0;;;11.92;47.83
61676;BME280;47574;52.090;5.244;2023-03-04T04:54:27;102577.0;;;11.73;48.21
61676;BME280;47574;52.090;5.244;2023-03-04T04:56:12;102576.0;;;11.82;48.3
61676;BME280;47574;52.090;5.244;2023-03-04T04:57:49;102574.0;;;11.83;48.4
61676;BME280;47574;52.090;5.244;2023-03-04T05:01:02;102571.0;;;11.96;48.08
61676;BME280;47574;52.090;5.244;2023-03-04T05:02:39;102575.0;;;12.07;47.87
61676;BME280;47574;52.090;5.244;2023-03-04T05:04:15;102570.0;;;11.99;47.9
61676;BME280;47574;52.090;5.244;2023-03-04T05:07:28;102572.0;;;12.07;47.93
61676;BME280;47574;52.090;5.244;2023-03-04T05:09:03;102569.0;;;11.87;48.46
61676;BME280;47574;52.090;5.244;2023-03-04T05:10:39;102570.0;;;12.05;48.33
61676;BME280;47574;52.090;5.244;2023-03-04T05:13:52;102572.0;;;12.13;47.84
61676;BME280;47574;52.090;5.244;2023-03-04T05:15:29;102572.0;;;12.17;47.68
61676;BME280;47574;52.090;5.244;2023-03-04T05:17:05;102568.0;;;12.17;47.82
61676;BME280;47574;52.090;5.244;2023-03-04T05:20:17;102567.0;;;11.96;48.36
61676;BME280;47574;52.090;5.244;2023-03-04T05:21:54;102568.0;;;12.08;48.11
61676;BME280;47574;52.090;5.244;2023-03-04T05:23:32;102571.0;;;11.93;48.27
61676;BME280;47574;52.090;5.244;2023-03-04T05:25:09;102570.0;;;11.79;48.52
61676;BME280;47574;52.090;5.244;2023-03-04T05:28:21;102571.0;;;11.95;48.25
61676;BME280;47574;52.090;5.244;2023-03-04T05:29:58;102575.0;;;11.88;48.53
61676;BME280;47574;52.090;5.244;2023-03-04T05:31:35;102573.0;;;12.07;48.19
61676;BME280;47574;52.090;5.244;2023-03-04T05:34:50;102577.0;;;12.16;48.16
61676;BME280;47574;52.090;5.244;2023-03-04T05:36:26;102574.0;;;12.29;47.95
61676;BME280;47574;52.090;5.244;2023-03-04T05:38:02;102579.0;;;11.93;48.72
61676;BME280;47574;52.090;5.244;2023-03-04T05:39:39;102579.0;;;11.96;48.84
61676;BME280;47574;52.090;5.244;2023-03-04T05:42:51;102572.0;;;11.83;49.19
61676;BME280;47574;52.090;5.244;2023-03-04T05:44:28;102583.0;;;11.88;49.17
61676;BME280;47574;52.090;5.244;2023-03-04T05:46:04;102577.0;;;11.71;49.5
61676;BME280;47574;52.090;5.244;2023-03-04T05:49:16;102580.0;;;11.66;49.56
61676;BME280;47574;52.090;5.244;2023-03-04T05:50:53;102577.0;;;11.69;49.55
61676;BME280;47574;52.090;5.244;2023-03-04T05:52:29;102579.0;;;11.68;49.6
61676;BME280;47574;52.090;5.244;2023-03-04T05:55:44;102575.0;;;11.67;49.59
61676;BME280;47574;52.090;5.244;2023-03-04T05:57:21;102574.0;;;12.04;48.91
61676;BME280;47574;52.090;5.244;2023-03-04T05:58:57;102573.0;;;11.77;49.27
61676;BME280;47574;52.090;5.244;2023-03-04T06:02:10;102574.0;;;11.68;49.5
61676;BME280;47574;52.090;5.244;2023-03-04T06:03:46;102569.0;;;11.86;49.09
61676;BME280;47574;52.090;5.244;2023-03-04T06:05:23;102575.0;;;11.69;49.54
61676;BME280;47574;52.090;5.244;2023-03-04T06:06:59;102578.0;;;11.55;49.8
61676;BME280;47574;52.090;5.244;2023-03-04T06:10:14;102573.0;;;11.72;49.51
61676;BME280;47574;52.090;5.244;2023-03-04T06:11:50;102575.0;;;11.78;49.4
61676;BME280;47574;52.090;5.244;2023-03-04T06:13:27;102577.0;;;11.89;49.25
61676;BME280;47574;52.090;5.244;2023-03-04T06:16:40;102577.0;;;11.93;49.02
61676;BME280;47574;52.090;5.244;2023-03-04T06:18:16;102573.0;;;11.74;49.57
61676;BME280;47574;52.090;5.244;2023-03-04T06:19:52;102568.0;;;11.73;49.54
61676;BME280;47574;52.090;5.244;2023-03-04T06:23:05;102572.0;;;11.82;49.31
61676;BME280;47574;52.090;5.244;2023-03-04T06:24:42;102575.0;;;11.76;49.48
61676;BME280;47574;52.090;5.244;2023-03-04T06:26:18;102570.0;;;12.02;49.14
61676;BME280;47574;52.090;5.244;2023-03-04T06:27:54;102575.0;;;11.82;49.39
61676;BME280;47574;52.090;5.244;2023-03-04T06:31:07;102571.0;;;11.87;49.22
61676;BME280;47574;52.090;5.244;2023-03-04T06:32:43;102576.0;;;11.88;49.24
61676;BME280;47574;52.090;5.244;2023-03-04T06:34:20;102576.0;;;12.12;48.87
61676;BME280;47574;52.090;5.244;2023-03-04T06:37:32;102574.0;;;12.18;48.52
61676;BME280;47574;52.090;5.244;2023-03-04T06:39:09;102578.0;;;12.29;48.47
61676;BME280;47574;52.090;5.244;2023-03-04T06:40:45;102580.0;;;12.0;49.06
61676;BME280;47574;52.090;5.244;2023-03-04T06:43:57;102581.0;;;11.96;49.23
61676;BME280;47574;52.090;5.244;2023-03-04T06:45:33;102583.0;;;12.0;49.29
61676;BME280;47574;52.090;5.244;2023-03-04T06:47:09;102581.0;;;11.99;49.34
61676;BME280;47574;52.090;5.244;2023-03-04T06:48:45;102579.0;;;11.88;49.59
61676;BME280;47574;52.090;5.244;2023-03-04T06:51:59;102583.0;;;12.03;49.54
61676;BME280;47574;52.090;5.244;2023-03-04T06:53:35;102582.0;;;11.92;49.72
61676;BME280;47574;52.090;5.244;2023-03-04T06:55:12;102583.99999999999;;;11.92;49.85
61676;BME280;47574;52.090;5.244;2023-03-04T06:58:24;102582.0;;;12.15;49.39
61676;BME280;47574;52.090;5.244;2023-03-04T07:00:00;102581.0;;;11.77;50.22
61676;BME280;47574;52.090;5.244;2023-03-04T07:01:36;102583.99999999999;;;11.96;49.95
61676;BME280;47574;52.090;5.244;2023-03-04T07:04:49;102590.00000000001;;;11.91;50.07
61676;BME280;47574;52.090;5.244;2023-03-04T07:06:27;102589.00000000001;;;11.86;50.26
61676;BME280;47574;52.090;5.244;2023-03-04T07:08:03;102592.0;;;11.96;50.14
61676;BME280;47574;52.090;5.244;2023-03-04T07:09:39;102593.0;;;11.85;50.38
61676;BME280;47574;52.090;5.244;2023-03-04T07:12:55;102598.0;;;12.05;49.96
61676;BME280;47574;52.090;5.244;2023-03-04T07:14:31;102598.0;;;12.11;49.81
61676;BME280;47574;52.090;5.244;2023-03-04T07:16:09;102605.0;;;12.06;50.41
61676;BME280;47574;52.090;5.244;2023-03-04T07:19:23;102600.0;;;12.07;51.04
61676;BME280;47574;52.090;5.244;2023-03-04T07:21:00;102603.0;;;11.84;51.95
61676;BME280;47574;52.090;5.244;2023-03-04T07:22:36;102602.0;;;11.52;52.28
61676;BME280;47574;52.090;5.244;2023-03-04T07:25:49;102602.0;;;11.7;52.24
61676;BME280;47574;52.090;5.244;2023-03-04T07:27:26;102599.0;;;11.51;52.29
61676;BME280;47574;52.090;5.244;2023-03-04T07:29:02;102595.0;;;11.81;51.88
61676;BME280;47574;52.090;5.244;2023-03-04T07:30:39;102593.0;;;12.0;51.43
61676;BME280;47574;52.090;5.244;2023-03-04T07:33:55;102598.0;;;11.89;51.71
61676;BME280;47574;52.090;5.244;2023-03-04T07:35:32;102603.0;;;11.77;51.91
61676;BME280;47574;52.090;5.244;2023-03-04T07:37:08;102607.0;;;11.68;52.39
61676;BME280;47574;52.090;5.244;2023-03-04T07:40:22;102601.0;;;11.95;51.71
61676;BME280;47574;52.090;5.244;2023-03-04T07:41:58;102605.0;;;11.65;52.35
61676;BME280;47574;52.090;5.244;2023-03-04T07:43:35;102603.0;;;12.11;51.51
61676;BME280;47574;52.090;5.244;2023-03-04T07:45:11;102605.0;;;11.75;51.87
61676;BME280;47574;52.090;5.244;2023-03-04T07:48:23;102606.0;;;11.96;51.33
61676;BME280;47574;52.090;5.244;2023-03-04T07:49:59;102608.0;;;12.21;50.81
61676;BME280;47574;52.090;5.244;2023-03-04T07:51:36;102613.00000000001;;;12.22;50.82
61676;BME280;47574;52.090;5.244;2023-03-04T07:54:49;102606.0;;;12.27;50.48
61676;BME280;47574;52.090;5.244;2023-03-04T07:56:26;102609.99999999999;;;12.41;50.31
61676;BME280;47574;52.090;5.244;2023-03-04T07:58:04;102608.0;;;12.43;50.16
61676;BME280;47574;52.090;5.244;2023-03-04T08:01:19;102611.99999999999;;;12.49;49.99
61676;BME280;47574;52.090;5.244;2023-03-04T08:02:56;102608.99999999999;;;12.47;50.3
61676;BME280;47574;52.090;5.244;2023-03-04T08:04:32;102608.0;;;12.56;50.11
61676;BME280;47574;52.090;5.244;2023-03-04T08:06:10;102617.0;;;12.49;50.07
61676;BME280;47574;52.090;5.244;2023-03-04T08:09:23;102615.00000000001;;;12.59;49.8
61676;BME280;47574;52.090;5.244;2023-03-04T08:11:03;102614.00000000001;;;12.44;50.19
61676;BME280;47574;52.090;5.244;2023-03-04T08:12:39;102613.00000000001;;;12.57;49.99
61676;BME280;47574;52.090;5.244;2023-03-04T08:15:54;102623.0;;;12.34;50.51
61676;BME280;47574;52.090;5.244;2023-03-04T08:17:31;102620.0;;;12.44;50.56
61676;BME280;47574;52.090;5.244;2023-03-04T08:19:07;102629.0;;;12.54;50.07
61676;BME280;47574;52.090;5.244;2023-03-04T08:22:21;102628.0;;;12.48;50.03
61676;BME280;47574;52.090;5.244;2023-03-04T08:23:58;102627.0;;;12.52;49.99
61676;BME280;47574;52.090;5.244;2023-03-04T08:25:38;102632.0;;;12.47;50.16
61676;BME280;47574;52.090;5.244;2023-03-04T08:27:14;102633.99999999999;;;12.22;51.05
61676;BME280;47574;52.090;5.244;2023-03-04T08:30:27;102626.0;;;11.7;52.18
61676;BME280;47574;52.090;5.244;2023-03-04T08:32:04;102624.0;;;12.17;51.24
61676;BME280;47574;52.090;5.244;2023-03-04T08:33:40;102628.0;;;12.13;51.05
61676;BME280;47574;52.090;5.244;2023-03-04T08:36:52;102623.0;;;12.26;51.13
61676;BME280;47574;52.090;5.244;2023-03-04T08:38:29;102629.0;;;12.33;50.8
61676;BME280;47574;52.090;5.244;2023-03-04T08:40:06;102632.0;;;12.48;50.6
61676;BME280;47574;52.090;5.244;2023-03-04T08:41:44;102629.0;;;12.7;50.29
61676;BME280;47574;52.090;5.244;2023-03-04T08:44:59;102627.0;;;12.61;50.31
61676;BME280;47574;52.090;5.244;2023-03-04T08:46:36;102630.0;;;12.62;50.16
61676;BME280;47574;52.090;5.244;2023-03-04T08:48:13;102628.0;;;12.75;49.99
61676;BME280;47574;52.090;5.244;2023-03-04T08:51:28;102625.0;;;12.62;50.38
61676;BME280;47574;52.090;5.244;2023-03-04T08:53:04;102624.0;;;13.0;49.68
61676;BME280;47574;52.090;5.244;2023-03-04T08:54:40;102622.0;;;12.73;50.28
61676;BME280;47574;52.090;5.244;2023-03-04T08:57:54;102618.0;;;12.68;50.33
61676;BME280;47574;52.090;5.244;2023-03-04T08:59:30;102615.00000000001;;;13.13;49.34
61676;BME280;47574;52.090;5.244;2023-03-04T09:01:07;102617.0;;;13.02;49.6
61676;BME280;47574;52.090;5.244;2023-03-04T09:02:44;102614.00000000001;;;12.94;50.14
61676;BME280;47574;52.090;5.244;2023-03-04T09:05:56;102615.00000000001;;;13.14;49.77
61676;BME280;47574;52.090;5.244;2023-03-04T09:07:32;102617.0;;;12.99;49.88
61676;BME280;47574;52.090;5.244;2023-03-04T09:09:09;102620.0;;;13.02;49.87
61676;BME280;47574;52.090;5.244;2023-03-04T09:12:22;102619.0;;;13.09;50.28
61676;BME280;47574;52.090;5.244;2023-03-04T09:13:58;102618.0;;;12.84;51.82
61676;BME280;47574;52.090;5.244;2023-03-04T09:15:34;102620.0;;;12.76;52.43
61676;BME280;47574;52.090;5.244;2023-03-04T09:18:47;102621.0;;;12.93;52.53
61676;BME280;47574;52.090;5.244;2023-03-04T09:20:23;102616.00000000001;;;12.82;52.99
61676;BME280;47574;52.090;5.244;2023-03-04T09:21:59;102617.0;;;12.68;53.37
61676;BME280;47574;52.090;5.244;2023-03-04T09:23:37;102617.0;;;12.46;54.63
61676;BME280;47574;52.090;5.244;2023-03-04T09:26:50;102621.0;;;12.41;54.53
61676;BME280;47574;52.090;5.244;2023-03-04T09:28:26;102617.0;;;12.67;54.3
61676;BME280;47574;52.090;5.244;2023-03-04T09:30:03;102620.0;;;12.9;54.16
61676;BME280;47574;52.090;5.244;2023-03-04T09:33:16;102617.0;;;12.52;54.88
61676;BME280;47574;52.090;5.244;2023-03-04T09:34:53;102621.0;;;12.72;54.68
61676;BME280;47574;52.090;5.244;2023-03-04T09:36:29;102617.0;;;12.71;54.66
61676;BME280;47574;52.090;5.244;2023-03-04T09:39:42;102620.0;;;12.54;54.82
61676;BME280;47574;52.090;5.244;2023-03-04T09:41:21;102617.0;;;12.65;55.2
61676;BME280;47574;52.090;5.244;2023-03-04T09:43:01;102611.99999999999;;;12.77;54.82
61676;BME280;47574;52.090;5.244;2023-03-04T09:44:40;102618.0;;;12.34;56.06
61676;BME280;47574;52.090;5.244;2023-03-04T09:48:04;102611.99999999999;;;12.39;56.3
61676;BME280;47574;52.090;5.244;2023-03-04T09:49:44;102608.99999999999;;;12.72;55.86
61676;BME280;47574;52.090;5.244;2023-03-04T09:51:42;102611.99999999999;;;12.86;55.41
61676;BME280;47574;52.090;5.244;2023-03-04T09:53:22;102602.0;;;13.25;54.48
61676;BME280;47574;52.090;5.244;2023-03-04T09:55:16;102602.0;;;13.0;54.65
61676;BME280;47574;52.090;5.244;2023-03-04T09:58:47;102603.0;;;12.61;55.13
61676;BME280;47574;52.090;5.244;2023-03-04T10:00:32;102597.0;;;12.98;53.6
61676;BME280;47574;52.090;5.244;2023-03-04T10:02:17;102605.0;;;13.26;53.21
61676;BME280;47574;52.090;5.244;2023-03-04T10:04:00;102600.0;;;13.07;53.93
61676;BME280;47574;52.090;5.244;2023-03-04T10:05:41;102603.0;;;13.26;53.35
61676;BME280;47574;52.090;5.244;2023-03-04T10:09:13;102598.0;;;13.19;53.53
61676;BME280;47574;52.090;5.244;2023-03-04T10:10:54;102601.0;;;13.32;52.99
61676;BME280;47574;52.090;5.244;2023-03-04T10:12:33;102601.0;;;12.93;53.59
61676;BME280;47574;52.090;5.244;2023-03-04T10:14:26;102596.0;;;13.0;53.71
61676;BME280;47574;52.090;5.244;2023-03-04T10:16:13;102601.0;;;12.84;53.66
61676;BME280;47574;52.090;5.244;2023-03-04T10:19:47;102594.0;;;12.99;53.27
61676;BME280;47574;52.090;5.244;2023-03-04T10:21:29;102590.00000000001;;;13.37;53.21
61676;BME280;47574;52.090;5.244;2023-03-04T10:23:11;102590.00000000001;;;13.37;52.71
61676;BME280;47574;52.090;5.244;2023-03-04T10:24:55;102581.0;;;13.07;52.11
61676;BME280;47574;52.090;5.244;2023-03-04T10:26:32;102580.0;;;12.75;52.96
61676;BME280;47574;52.090;5.244;2023-03-04T10:29:51;102571.0;;;13.02;52.03
61676;BME280;47574;52.090;5.244;2023-03-04T10:31:31;102571.0;;;13.38;51.89
61676;BME280;47574;52.090;5.244;2023-03-04T10:33:12;102571.0;;;13.74;51.56
61676;BME280;47574;52.090;5.244;2023-03-04T10:34:48;102569.0;;;13.57;50.81
61676;BME280;47574;52.090;5.244;2023-03-04T10:38:21;102581.0;;;13.89;50.36
61676;BME280;47574;52.090;5.244;2023-03-04T10:40:00;102573.0;;;13.46;50.79
61676;BME280;47574;52.090;5.244;2023-03-04T10:41:41;102579.0;;;13.83;50.41
61676;BME280;47574;52.090;5.244;2023-03-04T10:43:19;102580.0;;;13.68;50.21
61676;BME280;47574;52.090;5.244;2023-03-04T10:46:37;102581.0;;;13.87;50.19
61676;BME280;47574;52.090;5.244;2023-03-04T10:48:19;102583.0;;;13.7;50.96
61676;BME280;47574;52.090;5.244;2023-03-04T10:49:57;102592.0;;;13.69;51.72
61676;BME280;47574;52.090;5.244;2023-03-04T10:51:42;102590.00000000001;;;13.33;53.52